Wellsville, UT

3:10 AM MDT on July 25, 2016 (GMT -0600)
Wellsville 1752 | | Change Station

Elev 4521 ft 41.65 °N, 111.91 °W | Updated 29 seconds ago

Clear
Clear
54.2 °F
Feels Like 54.2 °F
N
1.0
Wind Variable Wind from SSW
Gusts 1.0 mph

Today
High -- | Low -- °F
--% Chance of Precip.
Yesterday
High -- | Low -- °F
Precip. -- in
Pressure 29.93 in
Visibility 10.0 miles
Clouds Clear
Dew Point 41 °F
Humidity 60%
Rainfall 0.00 in
Snow Depth Not available.
6:15 AM 8:52 PM
Waning Gibbous, 68% visible
METAR KLGU 250851Z AUTO 00000KT 10SM CLR 15/06 A3009 RMK AO2 SLP135 T01500061 51003
Pressure 29.93 in
Visibility 10.0 miles
Clouds Clear
Dew Point 41 °F
Humidity 60%
Rainfall 0.00 in
Snow Depth Not available.
6:15 AM 8:52 PM
Waning Gibbous, 68% visible
METAR KLGU 250851Z AUTO 00000KT 10SM CLR 15/06 A3009 RMK AO2 SLP135 T01500061 51003

10-Day Weather Forecast

Almanac

Astronomy

Jul. 25, 2016 Rise Set
Actual Time
Civil Twilight
Nautical Twilight
Astronomical Twilight
Moon
Length of Visible Light
Length of Day
Tomorrow will be .
, % of the Moon is Illuminated

Today's Extremes

State Highs State Lows

Community

WunderPhotos

Upload Photos

1,927,274 photos uploaded!

WunderBlog® & News

Nearby

Air Quality

  Air Quality AQ Index Pollutant
Not available.

Snow Depth

Station Depth Elevation

Earthquake Activity

City Distance Mag. Time & Date
Minimum magnitude displayed is 2.5.

Coastal Water Temperatures

Place Temperature

Stations

Nearby Weather Stations

Station Location Temp. Windchill Dew Point Humidity Wind Precip. Elev Updated Type
                   

Watches & Warnings

There are currently no watches in effect.